sensor_id;sensor_type;location;lat;lon;timestamp;temperature;humidity
5560;DHT22;2803;47.916;8.074;2023-03-01T00:00:09;2.40;99.90
5560;DHT22;2803;47.916;8.074;2023-03-01T00:02:38;2.50;99.90
5560;DHT22;2803;47.916;8.074;2023-03-01T00:05:07;2.10;99.90
5560;DHT22;2803;47.916;8.074;2023-03-01T00:07:34;1.70;99.90
5560;DHT22;2803;47.916;8.074;2023-03-01T00:10:01;2.00;99.90
5560;DHT22;2803;47.916;8.074;2023-03-01T00:12:27;2.20;99.90
5560;DHT22;2803;47.916;8.074;2023-03-01T00:14:54;2.20;99.90
5560;DHT22;2803;47.916;8.074;2023-03-01T00:17:23;2.00;99.90
5560;DHT22;2803;47.916;8.074;2023-03-01T00:19:51;1.00;99.90
5560;DHT22;2803;47.916;8.074;2023-03-01T00:22:18;1.20;99.90
5560;DHT22;2803;47.916;8.074;2023-03-01T00:24:44;1.10;99.90
5560;DHT22;2803;47.916;8.074;2023-03-01T00:27:11;1.40;99.90
5560;DHT22;2803;47.916;8.074;2023-03-01T00:29:38;1.10;99.90
5560;DHT22;2803;47.916;8.074;2023-03-01T00:32:04;1.50;99.90
5560;DHT22;2803;47.916;8.074;2023-03-01T00:34:32;1.90;99.90
5560;DHT22;2803;47.916;8.074;2023-03-01T00:37:00;1.90;99.90
5560;DHT22;2803;47.916;8.074;2023-03-01T00:39:31;1.80;99.90
5560;DHT22;2803;47.916;8.074;2023-03-01T00:41:59;1.40;99.90
5560;DHT22;2803;47.916;8.074;2023-03-01T00:44:25;1.30;99.90
5560;DHT22;2803;47.916;8.074;2023-03-01T00:46:53;1.40;99.90
5560;DHT22;2803;47.916;8.074;2023-03-01T00:49:20;1.30;99.90
5560;DHT22;2803;47.916;8.074;2023-03-01T00:51:46;1.70;99.90
5560;DHT22;2803;47.916;8.074;2023-03-01T00:54:14;1.70;99.90
5560;DHT22;2803;47.916;8.074;2023-03-01T00:56:41;1.40;99.90
5560;DHT22;2803;47.916;8.074;2023-03-01T00:59:07;1.00;99.90
5560;DHT22;2803;47.916;8.074;2023-03-01T01:01:34;1.30;99.90
5560;DHT22;2803;47.916;8.074;2023-03-01T01:04:03;1.00;99.90
5560;DHT22;2803;47.916;8.074;2023-03-01T01:06:32;0.90;99.90
5560;DHT22;2803;47.916;8.074;2023-03-01T01:08:59;0.70;99.90
5560;DHT22;2803;47.916;8.074;2023-03-01T01:11:29;1.30;99.90
5560;DHT22;2803;47.916;8.074;2023-03-01T01:13:56;0.90;99.90
5560;DHT22;2803;47.916;8.074;2023-03-01T01:16:25;1.60;99.90
5560;DHT22;2803;47.916;8.074;2023-03-01T01:18:53;1.50;99.90
5560;DHT22;2803;47.916;8.074;2023-03-01T01:21:22;1.90;99.90
5560;DHT22;2803;47.916;8.074;2023-03-01T01:23:50;1.30;99.90
5560;DHT22;2803;47.916;8.074;2023-03-01T01:26:19;1.10;99.90
5560;DHT22;2803;47.916;8.074;2023-03-01T01:28:48;1.30;99.90
5560;DHT22;2803;47.916;8.074;2023-03-01T01:31:16;1.20;99.90
5560;DHT22;2803;47.916;8.074;2023-03-01T01:33:45;1.10;99.90
5560;DHT22;2803;47.916;8.074;2023-03-01T01:36:12;1.30;99.90
5560;DHT22;2803;47.916;8.074;2023-03-01T01:38:39;0.50;99.90
5560;DHT22;2803;47.916;8.074;2023-03-01T01:41:08;0.60;99.90
5560;DHT22;2803;47.916;8.074;2023-03-01T01:43:38;0.60;99.90
5560;DHT22;2803;47.916;8.074;2023-03-01T01:46:17;1.00;99.90
5560;DHT22;2803;47.916;8.074;2023-03-01T01:48:49;1.50;99.90
5560;DHT22;2803;47.916;8.074;2023-03-01T01:51:22;1.30;99.90
5560;DHT22;2803;47.916;8.074;2023-03-01T01:53:53;0.90;99.90
5560;DHT22;2803;47.916;8.074;2023-03-01T01:56:24;1.10;99.90
5560;DHT22;2803;47.916;8.074;2023-03-01T01:58:52;1.60;99.90
5560;DHT22;2803;47.916;8.074;2023-03-01T02:01:21;1.60;99.90
5560;DHT22;2803;47.916;8.074;2023-03-01T02:03:48;1.40;99.90
5560;DHT22;2803;47.916;8.074;2023-03-01T02:06:19;1.50;99.90
5560;DHT22;2803;47.916;8.074;2023-03-01T02:08:48;1.50;99.90
5560;DHT22;2803;47.916;8.074;2023-03-01T02:11:17;1.40;99.90
5560;DHT22;2803;47.916;8.074;2023-03-01T02:13:45;1.30;99.90
5560;DHT22;2803;47.916;8.074;2023-03-01T02:16:15;1.60;99.90
5560;DHT22;2803;47.916;8.074;2023-03-01T02:18:44;1.60;99.90
5560;DHT22;2803;47.916;8.074;2023-03-01T02:21:21;1.40;99.90
5560;DHT22;2803;47.916;8.074;2023-03-01T02:23:53;1.40;99.90
5560;DHT22;2803;47.916;8.074;2023-03-01T02:26:25;1.10;99.90
5560;DHT22;2803;47.916;8.074;2023-03-01T02:28:58;1.40;99.90
5560;DHT22;2803;47.916;8.074;2023-03-01T02:31:25;1.20;99.90
5560;DHT22;2803;47.916;8.074;2023-03-01T02:34:07;1.00;99.90
5560;DHT22;2803;47.916;8.074;2023-03-01T02:36:37;1.80;99.90
5560;DHT22;2803;47.916;8.074;2023-03-01T02:39:07;1.60;99.90
5560;DHT22;2803;47.916;8.074;2023-03-01T02:41:42;1.40;99.90
5560;DHT22;2803;47.916;8.074;2023-03-01T02:44:10;1.40;99.90
5560;DHT22;2803;47.916;8.074;2023-03-01T02:46:44;1.40;99.90
5560;DHT22;2803;47.916;8.074;2023-03-01T02:49:22;1.40;99.90
5560;DHT22;2803;47.916;8.074;2023-03-01T02:52:07;1.50;99.90
5560;DHT22;2803;47.916;8.074;2023-03-01T02:54:40;1.70;99.90
5560;DHT22;2803;47.916;8.074;2023-03-01T02:57:09;1.70;99.90
5560;DHT22;2803;47.916;8.074;2023-03-01T02:59:37;1.60;99.90
5560;DHT22;2803;47.916;8.074;2023-03-01T03:02:06;1.60;99.90
5560;DHT22;2803;47.916;8.074;2023-03-01T03:04:34;1.50;99.90
5560;DHT22;2803;47.916;8.074;2023-03-01T03:07:01;1.20;99.90
5560;DHT22;2803;47.916;8.074;2023-03-01T03:09:27;1.10;99.90
5560;DHT22;2803;47.916;8.074;2023-03-01T03:11:54;1.30;99.90
5560;DHT22;2803;47.916;8.074;2023-03-01T03:14:21;1.50;99.90
5560;DHT22;2803;47.916;8.074;2023-03-01T03:16:50;1.70;99.90
5560;DHT22;2803;47.916;8.074;2023-03-01T03:19:18;1.70;99.90
5560;DHT22;2803;47.916;8.074;2023-03-01T03:21:46;1.50;99.90
5560;DHT22;2803;47.916;8.074;2023-03-01T03:24:13;1.30;99.90
5560;DHT22;2803;47.916;8.074;2023-03-01T03:26:40;1.30;99.90
5560;DHT22;2803;47.916;8.074;2023-03-01T03:29:07;1.30;99.90
5560;DHT22;2803;47.916;8.074;2023-03-01T03:31:34;1.70;99.90
5560;DHT22;2803;47.916;8.074;2023-03-01T03:34:02;1.90;99.90
5560;DHT22;2803;47.916;8.074;2023-03-01T03:36:29;2.30;99.90
5560;DHT22;2803;47.916;8.074;2023-03-01T03:38:55;1.80;99.90
5560;DHT22;2803;47.916;8.074;2023-03-01T03:41:22;1.60;99.90
5560;DHT22;2803;47.916;8.074;2023-03-01T03:43:49;1.10;99.90
5560;DHT22;2803;47.916;8.074;2023-03-01T03:46:16;1.30;99.90
5560;DHT22;2803;47.916;8.074;2023-03-01T03:48:44;1.30;99.90
5560;DHT22;2803;47.916;8.074;2023-03-01T03:51:14;1.40;99.90
5560;DHT22;2803;47.916;8.074;2023-03-01T03:53:41;1.30;99.90
5560;DHT22;2803;47.916;8.074;2023-03-01T03:56:09;1.40;99.90
5560;DHT22;2803;47.916;8.074;2023-03-01T03:58:36;1.70;99.90
5560;DHT22;2803;47.916;8.074;2023-03-01T04:01:03;1.30;99.90
5560;DHT22;2803;47.916;8.074;2023-03-01T04:03:31;1.10;99.90
5560;DHT22;2803;47.916;8.074;2023-03-01T04:05:59;1.20;99.90
5560;DHT22;2803;47.916;8.074;2023-03-01T04:08:28;1.70;99.90
5560;DHT22;2803;47.916;8.074;2023-03-01T04:10:58;1.70;99.90
5560;DHT22;2803;47.916;8.074;2023-03-01T04:13:25;1.90;99.90
5560;DHT22;2803;47.916;8.074;2023-03-01T04:15:53;1.30;99.90
5560;DHT22;2803;47.916;8.074;2023-03-01T04:18:22;1.20;99.90
5560;DHT22;2803;47.916;8.074;2023-03-01T04:20:50;1.10;99.90
5560;DHT22;2803;47.916;8.074;2023-03-01T04:23:21;1.40;99.90
5560;DHT22;2803;47.916;8.074;2023-03-01T04:25:51;1.30;99.90
5560;DHT22;2803;47.916;8.074;2023-03-01T04:28:21;1.20;99.90
5560;DHT22;2803;47.916;8.074;2023-03-01T04:30:49;0.90;99.90
5560;DHT22;2803;47.916;8.074;2023-03-01T04:33:17;1.20;99.90
5560;DHT22;2803;47.916;8.074;2023-03-01T04:35:45;1.50;99.90
5560;DHT22;2803;47.916;8.074;2023-03-01T04:38:15;1.00;99.90
5560;DHT22;2803;47.916;8.074;2023-03-01T04:40:41;0.90;99.90
5560;DHT22;2803;47.916;8.074;2023-03-01T04:43:10;1.50;99.90
5560;DHT22;2803;47.916;8.074;2023-03-01T04:45:37;1.30;99.90
5560;DHT22;2803;47.916;8.074;2023-03-01T04:48:04;1.30;99.90
5560;DHT22;2803;47.916;8.074;2023-03-01T04:50:32;1.60;99.90
5560;DHT22;2803;47.916;8.074;2023-03-01T04:52:59;1.40;99.90
5560;DHT22;2803;47.916;8.074;2023-03-01T04:55:27;1.90;99.90
5560;DHT22;2803;47.916;8.074;2023-03-01T04:57:55;1.90;99.90
5560;DHT22;2803;47.916;8.074;2023-03-01T05:00:23;2.00;99.90
5560;DHT22;2803;47.916;8.074;2023-03-01T05:02:52;1.90;99.90
5560;DHT22;2803;47.916;8.074;2023-03-01T05:05:22;2.10;99.90
5560;DHT22;2803;47.916;8.074;2023-03-01T05:07:53;1.90;99.90
5560;DHT22;2803;47.916;8.074;2023-03-01T05:10:20;1.40;99.90
5560;DHT22;2803;47.916;8.074;2023-03-01T05:12:47;1.40;99.90
5560;DHT22;2803;47.916;8.074;2023-03-01T05:15:14;1.30;99.90
5560;DHT22;2803;47.916;8.074;2023-03-01T05:17:42;1.50;99.90
5560;DHT22;2803;47.916;8.074;2023-03-01T05:20:12;1.60;99.90
5560;DHT22;2803;47.916;8.074;2023-03-01T05:22:39;1.20;99.90
5560;DHT22;2803;47.916;8.074;2023-03-01T05:25:06;1.10;99.90
5560;DHT22;2803;47.916;8.074;2023-03-01T05:27:34;1.00;99.90
5560;DHT22;2803;47.916;8.074;2023-03-01T05:30:01;1.20;99.90
5560;DHT22;2803;47.916;8.074;2023-03-01T05:32:42;1.00;99.90
5560;DHT22;2803;47.916;8.074;2023-03-01T05:35:11;0.90;99.90
5560;DHT22;2803;47.916;8.074;2023-03-01T05:37:41;0.90;99.90
5560;DHT22;2803;47.916;8.074;2023-03-01T05:40:11;0.60;99.90
5560;DHT22;2803;47.916;8.074;2023-03-01T05:42:42;0.80;99.90
5560;DHT22;2803;47.916;8.074;2023-03-01T05:45:10;1.30;99.90
5560;DHT22;2803;47.916;8.074;2023-03-01T05:47:38;1.60;99.90
5560;DHT22;2803;47.916;8.074;2023-03-01T05:50:06;1.10;99.90
5560;DHT22;2803;47.916;8.074;2023-03-01T05:52:33;0.70;99.90
5560;DHT22;2803;47.916;8.074;2023-03-01T05:55:00;0.80;99.90
5560;DHT22;2803;47.916;8.074;2023-03-01T05:57:28;1.00;99.90
5560;DHT22;2803;47.916;8.074;2023-03-01T05:59:54;0.70;99.90
5560;DHT22;2803;47.916;8.074;2023-03-01T06:02:21;0.90;99.90
5560;DHT22;2803;47.916;8.074;2023-03-01T06:04:49;1.20;99.90
5560;DHT22;2803;47.916;8.074;2023-03-01T06:07:17;1.60;99.90
5560;DHT22;2803;47.916;8.074;2023-03-01T06:09:44;1.20;99.90
5560;DHT22;2803;47.916;8.074;2023-03-01T06:12:11;0.80;99.90
5560;DHT22;2803;47.916;8.074;2023-03-01T06:14:38;0.90;99.90
5560;DHT22;2803;47.916;8.074;2023-03-01T06:17:06;0.90;99.90
5560;DHT22;2803;47.916;8.074;2023-03-01T06:19:32;1.00;99.90
5560;DHT22;2803;47.916;8.074;2023-03-01T06:22:00;1.30;99.90
5560;DHT22;2803;47.916;8.074;2023-03-01T06:24:28;1.30;99.90
5560;DHT22;2803;47.916;8.074;2023-03-01T06:26:55;0.70;99.90
5560;DHT22;2803;47.916;8.074;2023-03-01T06:29:22;0.90;99.90
5560;DHT22;2803;47.916;8.074;2023-03-01T06:31:48;1.00;99.90
5560;DHT22;2803;47.916;8.074;2023-03-01T06:34:15;0.70;99.90
5560;DHT22;2803;47.916;8.074;2023-03-01T06:36:42;1.00;99.90
5560;DHT22;2803;47.916;8.074;2023-03-01T06:39:09;1.00;99.90
5560;DHT22;2803;47.916;8.074;2023-03-01T06:41:37;0.70;99.90
5560;DHT22;2803;47.916;8.074;2023-03-01T06:44:04;0.60;99.90
5560;DHT22;2803;47.916;8.074;2023-03-01T06:46:30;1.10;99.90
5560;DHT22;2803;47.916;8.074;2023-03-01T06:48:58;1.10;99.90
5560;DHT22;2803;47.916;8.074;2023-03-01T06:51:25;1.10;99.90
5560;DHT22;2803;47.916;8.074;2023-03-01T06:53:53;1.30;99.90
5560;DHT22;2803;47.916;8.074;2023-03-01T06:56:20;1.50;99.90
5560;DHT22;2803;47.916;8.074;2023-03-01T06:58:48;1.10;99.90
5560;DHT22;2803;47.916;8.074;2023-03-01T07:01:15;1.00;99.90
5560;DHT22;2803;47.916;8.074;2023-03-01T07:03:41;1.00;99.90
5560;DHT22;2803;47.916;8.074;2023-03-01T07:06:09;0.80;99.90
5560;DHT22;2803;47.916;8.074;2023-03-01T07:08:36;0.50;99.90
5560;DHT22;2803;47.916;8.074;2023-03-01T07:11:03;0.60;99.90
5560;DHT22;2803;47.916;8.074;2023-03-01T07:13:29;0.80;99.90
5560;DHT22;2803;47.916;8.074;2023-03-01T07:15:57;0.20;99.90
5560;DHT22;2803;47.916;8.074;2023-03-01T07:18:24;0.70;99.90
5560;DHT22;2803;47.916;8.074;2023-03-01T07:20:51;1.20;99.90
5560;DHT22;2803;47.916;8.074;2023-03-01T07:23:17;1.30;99.90
5560;DHT22;2803;47.916;8.074;2023-03-01T07:25:44;1.30;99.90
5560;DHT22;2803;47.916;8.074;2023-03-01T07:28:18;1.20;99.90
5560;DHT22;2803;47.916;8.074;2023-03-01T07:30:44;0.80;99.90
5560;DHT22;2803;47.916;8.074;2023-03-01T07:33:14;0.80;99.90
5560;DHT22;2803;47.916;8.074;2023-03-01T07:35:41;1.00;99.90
5560;DHT22;2803;47.916;8.074;2023-03-01T07:38:09;1.50;99.90
5560;DHT22;2803;47.916;8.074;2023-03-01T07:40:36;1.30;99.90
5560;DHT22;2803;47.916;8.074;2023-03-01T07:43:03;0.90;99.90
5560;DHT22;2803;47.916;8.074;2023-03-01T07:45:30;1.10;99.90
5560;DHT22;2803;47.916;8.074;2023-03-01T07:47:57;1.30;99.90
5560;DHT22;2803;47.916;8.074;2023-03-01T07:50:25;1.00;99.90
5560;DHT22;2803;47.916;8.074;2023-03-01T07:52:52;0.90;99.90
5560;DHT22;2803;47.916;8.074;2023-03-01T07:55:18;1.50;99.90
5560;DHT22;2803;47.916;8.074;2023-03-01T07:57:45;1.40;99.90
5560;DHT22;2803;47.916;8.074;2023-03-01T08:00:13;0.70;99.90
5560;DHT22;2803;47.916;8.074;2023-03-01T08:02:40;0.90;99.90
5560;DHT22;2803;47.916;8.074;2023-03-01T08:05:07;0.70;99.90
5560;DHT22;2803;47.916;8.074;2023-03-01T08:07:36;0.70;99.90
5560;DHT22;2803;47.916;8.074;2023-03-01T08:10:03;0.80;99.90
5560;DHT22;2803;47.916;8.074;2023-03-01T08:12:30;1.00;99.90
5560;DHT22;2803;47.916;8.074;2023-03-01T08:14:56;0.90;99.90
5560;DHT22;2803;47.916;8.074;2023-03-01T08:17:23;0.80;99.90
5560;DHT22;2803;47.916;8.074;2023-03-01T08:19:50;0.80;99.90
5560;DHT22;2803;47.916;8.074;2023-03-01T08:22:17;0.80;99.90
5560;DHT22;2803;47.916;8.074;2023-03-01T08:24:45;0.80;99.90
5560;DHT22;2803;47.916;8.074;2023-03-01T08:27:14;1.00;99.90
5560;DHT22;2803;47.916;8.074;2023-03-01T08:29:41;1.10;99.90
5560;DHT22;2803;47.916;8.074;2023-03-01T08:32:08;1.30;99.90
5560;DHT22;2803;47.916;8.074;2023-03-01T08:34:35;1.20;99.90
5560;DHT22;2803;47.916;8.074;2023-03-01T08:37:04;1.20;99.90
5560;DHT22;2803;47.916;8.074;2023-03-01T08:39:31;1.30;99.90
5560;DHT22;2803;47.916;8.074;2023-03-01T08:42:00;1.10;99.90
5560;DHT22;2803;47.916;8.074;2023-03-01T08:44:28;1.20;99.90
5560;DHT22;2803;47.916;8.074;2023-03-01T08:46:58;0.90;99.90
5560;DHT22;2803;47.916;8.074;2023-03-01T08:49:26;0.90;99.90
5560;DHT22;2803;47.916;8.074;2023-03-01T08:51:54;0.60;99.90
5560;DHT22;2803;47.916;8.074;2023-03-01T08:54:24;0.90;99.90
5560;DHT22;2803;47.916;8.074;2023-03-01T08:56:53;0.90;99.90
5560;DHT22;2803;47.916;8.074;2023-03-01T08:59:22;1.10;99.90
5560;DHT22;2803;47.916;8.074;2023-03-01T09:01:51;1.40;99.90
5560;DHT22;2803;47.916;8.074;2023-03-01T09:04:19;1.40;99.90
5560;DHT22;2803;47.916;8.074;2023-03-01T09:06:47;1.20;99.90
5560;DHT22;2803;47.916;8.074;2023-03-01T09:09:16;0.60;99.90
5560;DHT22;2803;47.916;8.074;2023-03-01T09:11:45;0.60;99.90
5560;DHT22;2803;47.916;8.074;2023-03-01T09:14:12;0.70;99.90
5560;DHT22;2803;47.916;8.074;2023-03-01T09:16:42;1.10;99.90
5560;DHT22;2803;47.916;8.074;2023-03-01T09:19:10;1.00;99.90
5560;DHT22;2803;47.916;8.074;2023-03-01T09:21:38;1.20;99.90
5560;DHT22;2803;47.916;8.074;2023-03-01T09:24:05;1.10;99.90
5560;DHT22;2803;47.916;8.074;2023-03-01T09:26:32;1.00;99.90
5560;DHT22;2803;47.916;8.074;2023-03-01T09:28:59;1.10;99.90
5560;DHT22;2803;47.916;8.074;2023-03-01T09:31:27;1.30;99.90
5560;DHT22;2803;47.916;8.074;2023-03-01T09:33:55;1.40;99.90
5560;DHT22;2803;47.916;8.074;2023-03-01T09:36:25;1.20;99.90
5560;DHT22;2803;47.916;8.074;2023-03-01T09:38:54;1.40;99.90
5560;DHT22;2803;47.916;8.074;2023-03-01T09:41:38;1.40;99.90
5560;DHT22;2803;47.916;8.074;2023-03-01T09:44:20;1.70;99.90
5560;DHT22;2803;47.916;8.074;2023-03-01T09:46:48;1.70;99.90
5560;DHT22;2803;47.916;8.074;2023-03-01T09:49:21;1.70;99.90
5560;DHT22;2803;47.916;8.074;2023-03-01T09:51:56;2.30;99.90
5560;DHT22;2803;47.916;8.074;2023-03-01T09:54:25;2.40;99.90
5560;DHT22;2803;47.916;8.074;2023-03-01T09:57:04;2.10;99.90
5560;DHT22;2803;47.916;8.074;2023-03-01T09:59:40;1.90;99.90
5560;DHT22;2803;47.916;8.074;2023-03-01T10:02:21;1.70;99.90
5560;DHT22;2803;47.916;8.074;2023-03-01T10:04:55;1.90;99.90
5560;DHT22;2803;47.916;8.074;2023-03-01T10:07:32;1.60;99.90
5560;DHT22;2803;47.916;8.074;2023-03-01T10:10:05;1.90;99.90
5560;DHT22;2803;47.916;8.074;2023-03-01T10:12:35;1.70;99.90
5560;DHT22;2803;47.916;8.074;2023-03-01T10:15:06;1.80;99.90
5560;DHT22;2803;47.916;8.074;2023-03-01T10:17:39;1.50;99.90
5560;DHT22;2803;47.916;8.074;2023-03-01T10:20:21;1.20;99.90
5560;DHT22;2803;47.916;8.074;2023-03-01T10:22:50;1.20;99.90
5560;DHT22;2803;47.916;8.074;2023-03-01T10:25:29;1.30;99.90
5560;DHT22;2803;47.916;8.074;2023-03-01T10:28:02;1.30;99.90
5560;DHT22;2803;47.916;8.074;2023-03-01T10:30:36;1.60;99.90
5560;DHT22;2803;47.916;8.074;2023-03-01T10:33:13;1.70;99.90
5560;DHT22;2803;47.916;8.074;2023-03-01T10:35:43;1.60;99.90
5560;DHT22;2803;47.916;8.074;2023-03-01T10:38:11;1.70;99.90
5560;DHT22;2803;47.916;8.074;2023-03-01T10:40:52;1.80;99.90
5560;DHT22;2803;47.916;8.074;2023-03-01T10:43:20;1.70;99.90
5560;DHT22;2803;47.916;8.074;2023-03-01T10:45:47;1.30;99.90
5560;DHT22;2803;47.916;8.074;2023-03-01T10:48:16;1.30;99.90
5560;DHT22;2803;47.916;8.074;2023-03-01T10:50:47;1.50;99.90
5560;DHT22;2803;47.916;8.074;2023-03-01T10:53:24;2.10;99.90
5560;DHT22;2803;47.916;8.074;2023-03-01T10:56:01;2.20;99.90
5560;DHT22;2803;47.916;8.074;2023-03-01T10:58:29;2.30;99.90
5560;DHT22;2803;47.916;8.074;2023-03-01T11:00:57;2.40;99.90
5560;DHT22;2803;47.916;8.074;2023-03-01T11:03:27;1.90;99.90
5560;DHT22;2803;47.916;8.074;2023-03-01T11:06:00;1.80;99.90
5560;DHT22;2803;47.916;8.074;2023-03-01T11:08:34;2.20;99.90
5560;DHT22;2803;47.916;8.074;2023-03-01T11:11:12;2.30;99.90
5560;DHT22;2803;47.916;8.074;2023-03-01T11:13:49;2.20;99.90
5560;DHT22;2803;47.916;8.074;2023-03-01T11:16:24;1.90;99.90
5560;DHT22;2803;47.916;8.074;2023-03-01T11:18:57;2.00;99.90
5560;DHT22;2803;47.916;8.074;2023-03-01T11:21:28;1.90;99.90
5560;DHT22;2803;47.916;8.074;2023-03-01T11:23:55;1.70;99.90
5560;DHT22;2803;47.916;8.074;2023-03-01T11:26:23;1.90;99.90
5560;DHT22;2803;47.916;8.074;2023-03-01T11:28:53;2.40;99.90
5560;DHT22;2803;47.916;8.074;2023-03-01T11:31:22;2.60;99.90
5560;DHT22;2803;47.916;8.074;2023-03-01T11:33:55;3.20;99.90
5560;DHT22;2803;47.916;8.074;2023-03-01T11:36:30;2.90;99.90
5560;DHT22;2803;47.916;8.074;2023-03-01T11:39:05;3.30;99.90
5560;DHT22;2803;47.916;8.074;2023-03-01T11:41:39;2.80;99.90
5560;DHT22;2803;47.916;8.074;2023-03-01T11:44:16;2.90;99.90
5560;DHT22;2803;47.916;8.074;2023-03-01T11:46:57;2.60;99.90
5560;DHT22;2803;47.916;8.074;2023-03-01T11:49:40;2.60;99.90
5560;DHT22;2803;47.916;8.074;2023-03-01T11:52:21;2.60;99.90
5560;DHT22;2803;47.916;8.074;2023-03-01T11:55:02;2.70;99.90
5560;DHT22;2803;47.916;8.074;2023-03-01T11:57:43;2.30;99.90
5560;DHT22;2803;47.916;8.074;2023-03-01T12:00:22;2.10;99.90
5560;DHT22;2803;47.916;8.074;2023-03-01T12:03:07;2.60;99.90
5560;DHT22;2803;47.916;8.074;2023-03-01T12:06:01;2.80;99.90
5560;DHT22;2803;47.916;8.074;2023-03-01T12:08:37;2.80;99.90
5560;DHT22;2803;47.916;8.074;2023-03-01T12:11:20;2.60;99.90
5560;DHT22;2803;47.916;8.074;2023-03-01T12:14:08;2.70;99.90
5560;DHT22;2803;47.916;8.074;2023-03-01T12:16:55;2.80;99.90
5560;DHT22;2803;47.916;8.074;2023-03-01T12:19:38;3.20;99.90
5560;DHT22;2803;47.916;8.074;2023-03-01T12:22:19;3.00;99.90
5560;DHT22;2803;47.916;8.074;2023-03-01T12:25:10;3.10;99.90
5560;DHT22;2803;47.916;8.074;2023-03-01T12:27:56;3.30;99.90
5560;DHT22;2803;47.916;8.074;2023-03-01T12:30:36;3.70;99.90
5560;DHT22;2803;47.916;8.074;2023-03-01T12:33:17;3.50;99.90
5560;DHT22;2803;47.916;8.074;2023-03-01T12:35:59;3.50;99.90
5560;DHT22;2803;47.916;8.074;2023-03-01T12:38:37;4.30;99.90
5560;DHT22;2803;47.916;8.074;2023-03-01T12:44:17;3.20;99.90
5560;DHT22;2803;47.916;8.074;2023-03-01T12:46:56;3.40;99.90
5560;DHT22;2803;47.916;8.074;2023-03-01T12:49:33;3.30;99.90
5560;DHT22;2803;47.916;8.074;2023-03-01T12:52:10;3.10;99.90
5560;DHT22;2803;47.916;8.074;2023-03-01T12:54:41;3.20;99.90
5560;DHT22;2803;47.916;8.074;2023-03-01T12:57:18;3.00;99.90
5560;DHT22;2803;47.916;8.074;2023-03-01T13:00:02;3.20;99.90
5560;DHT22;2803;47.916;8.074;2023-03-01T13:02:39;3.50;99.90
5560;DHT22;2803;47.916;8.074;2023-03-01T13:05:23;3.60;99.90
5560;DHT22;2803;47.916;8.074;2023-03-01T13:07:57;4.10;99.90
5560;DHT22;2803;47.916;8.074;2023-03-01T13:10:30;3.60;99.90
5560;DHT22;2803;47.916;8.074;2023-03-01T13:13:12;4.10;99.90
5560;DHT22;2803;47.916;8.074;2023-03-01T13:15:40;4.10;99.90
5560;DHT22;2803;47.916;8.074;2023-03-01T13:18:31;4.40;99.90
5560;DHT22;2803;47.916;8.074;2023-03-01T13:21:02;4.30;99.90
5560;DHT22;2803;47.916;8.074;2023-03-01T13:23:34;4.20;99.90
5560;DHT22;2803;47.916;8.074;2023-03-01T13:26:06;4.10;99.90
5560;DHT22;2803;47.916;8.074;2023-03-01T13:28:41;4.10;99.90
5560;DHT22;2803;47.916;8.074;2023-03-01T13:31:09;3.80;99.90
5560;DHT22;2803;47.916;8.074;2023-03-01T13:33:41;4.00;99.90
5560;DHT22;2803;47.916;8.074;2023-03-01T13:36:09;3.90;99.90
5560;DHT22;2803;47.916;8.074;2023-03-01T13:38:45;3.40;99.90
5560;DHT22;2803;47.916;8.074;2023-03-01T13:41:16;3.40;99.90
5560;DHT22;2803;47.916;8.074;2023-03-01T13:43:46;3.50;99.90
5560;DHT22;2803;47.916;8.074;2023-03-01T13:46:18;3.50;99.90
5560;DHT22;2803;47.916;8.074;2023-03-01T13:48:50;3.80;99.90
5560;DHT22;2803;47.916;8.074;2023-03-01T13:51:22;4.00;99.90
5560;DHT22;2803;47.916;8.074;2023-03-01T13:53:52;4.10;99.90
5560;DHT22;2803;47.916;8.074;2023-03-01T13:56:23;4.20;99.90
5560;DHT22;2803;47.916;8.074;2023-03-01T13:58:54;4.70;99.90
5560;DHT22;2803;47.916;8.074;2023-03-01T14:01:27;5.00;99.90
5560;DHT22;2803;47.916;8.074;2023-03-01T14:03:54;5.30;99.90
5560;DHT22;2803;47.916;8.074;2023-03-01T14:06:25;5.90;99.90
5560;DHT22;2803;47.916;8.074;2023-03-01T14:09:03;5.90;99.90
5560;DHT22;2803;47.916;8.074;2023-03-01T14:11:51;5.60;99.90
5560;DHT22;2803;47.916;8.074;2023-03-01T14:14:32;5.40;99.90
5560;DHT22;2803;47.916;8.074;2023-03-01T14:17:15;5.50;99.90
5560;DHT22;2803;47.916;8.074;2023-03-01T14:19:46;4.70;99.90
5560;DHT22;2803;47.916;8.074;2023-03-01T14:22:18;5.00;99.90
5560;DHT22;2803;47.916;8.074;2023-03-01T14:24:48;5.00;99.90
5560;DHT22;2803;47.916;8.074;2023-03-01T14:27:18;4.80;99.90
5560;DHT22;2803;47.916;8.074;2023-03-01T14:29:56;4.90;99.90
5560;DHT22;2803;47.916;8.074;2023-03-01T14:32:26;5.10;99.90
5560;DHT22;2803;47.916;8.074;2023-03-01T14:34:53;5.60;99.90
5560;DHT22;2803;47.916;8.074;2023-03-01T14:37:23;5.90;99.90
5560;DHT22;2803;47.916;8.074;2023-03-01T14:39:51;6.30;99.90
5560;DHT22;2803;47.916;8.074;2023-03-01T14:42:19;6.70;99.90
5560;DHT22;2803;47.916;8.074;2023-03-01T14:44:50;6.60;99.90
5560;DHT22;2803;47.916;8.074;2023-03-01T14:47:29;6.50;99.90
5560;DHT22;2803;47.916;8.074;2023-03-01T14:50:01;6.20;99.90
5560;DHT22;2803;47.916;8.074;2023-03-01T14:52:34;5.70;99.90
5560;DHT22;2803;47.916;8.074;2023-03-01T14:55:04;5.60;99.90
5560;DHT22;2803;47.916;8.074;2023-03-01T14:57:33;5.70;99.90
5560;DHT22;2803;47.916;8.074;2023-03-01T15:00:04;5.90;99.90
5560;DHT22;2803;47.916;8.074;2023-03-01T15:02:35;5.70;99.90
5560;DHT22;2803;47.916;8.074;2023-03-01T15:05:05;5.70;99.90
5560;DHT22;2803;47.916;8.074;2023-03-01T15:07:38;6.40;99.90
5560;DHT22;2803;47.916;8.074;2023-03-01T15:10:17;6.30;99.90
5560;DHT22;2803;47.916;8.074;2023-03-01T15:12:46;6.30;99.90
5560;DHT22;2803;47.916;8.074;2023-03-01T15:15:26;6.70;99.90
5560;DHT22;2803;47.916;8.074;2023-03-01T15:17:59;6.10;99.90
5560;DHT22;2803;47.916;8.074;2023-03-01T15:20:28;6.00;99.90
5560;DHT22;2803;47.916;8.074;2023-03-01T15:23:01;6.20;99.90
5560;DHT22;2803;47.916;8.074;2023-03-01T15:25:32;6.10;99.90
5560;DHT22;2803;47.916;8.074;2023-03-01T15:28:01;6.00;99.90
5560;DHT22;2803;47.916;8.074;2023-03-01T15:30:32;6.40;99.90
5560;DHT22;2803;47.916;8.074;2023-03-01T15:33:18;6.70;99.90
5560;DHT22;2803;47.916;8.074;2023-03-01T15:35:47;7.00;99.90
5560;DHT22;2803;47.916;8.074;2023-03-01T15:38:31;6.70;99.90
5560;DHT22;2803;47.916;8.074;2023-03-01T15:41:00;6.90;99.90
5560;DHT22;2803;47.916;8.074;2023-03-01T15:43:42;6.90;99.90
5560;DHT22;2803;47.916;8.074;2023-03-01T15:46:17;7.10;99.90
5560;DHT22;2803;47.916;8.074;2023-03-01T15:48:46;7.30;99.90
5560;DHT22;2803;47.916;8.074;2023-03-01T15:51:15;7.70;99.90
5560;DHT22;2803;47.916;8.074;2023-03-01T15:53:43;7.80;99.90
5560;DHT22;2803;47.916;8.074;2023-03-01T15:56:13;8.10;99.90
5560;DHT22;2803;47.916;8.074;2023-03-01T15:58:40;8.10;99.90
5560;DHT22;2803;47.916;8.074;2023-03-01T16:01:11;8.10;99.90
5560;DHT22;2803;47.916;8.074;2023-03-01T16:03:38;8.00;99.90
5560;DHT22;2803;47.916;8.074;2023-03-01T16:06:09;7.70;99.90
5560;DHT22;2803;47.916;8.074;2023-03-01T16:08:36;7.70;99.90
5560;DHT22;2803;47.916;8.074;2023-03-01T16:11:04;7.90;99.90
5560;DHT22;2803;47.916;8.074;2023-03-01T16:13:32;7.90;99.90
5560;DHT22;2803;47.916;8.074;2023-03-01T16:15:59;8.00;99.90
5560;DHT22;2803;47.916;8.074;2023-03-01T16:18:26;7.90;99.90
5560;DHT22;2803;47.916;8.074;2023-03-01T16:20:53;7.70;99.90
5560;DHT22;2803;47.916;8.074;2023-03-01T16:23:21;7.80;99.90
5560;DHT22;2803;47.916;8.074;2023-03-01T16:25:50;7.80;99.90
5560;DHT22;2803;47.916;8.074;2023-03-01T16:28:17;7.80;99.90
5560;DHT22;2803;47.916;8.074;2023-03-01T16:30:46;7.80;99.90
5560;DHT22;2803;47.916;8.074;2023-03-01T16:33:13;7.80;99.90
5560;DHT22;2803;47.916;8.074;2023-03-01T16:35:40;7.80;99.90
5560;DHT22;2803;47.916;8.074;2023-03-01T16:38:06;7.80;99.90
5560;DHT22;2803;47.916;8.074;2023-03-01T16:40:34;7.70;99.90